Time;durP1;ratioP1;P1;durP2;ratioP2;P2;SDS_P1;SDS_P2;PMS_P1;PMS_P2;Temp;Humidity;BMP_temperature;BMP_pressure;BME280_temperature;BME280_humidity;BME280_pressure;Samples;Min_cycle;Max_cycle;Signal;HPM_P1;HPM_P2
2023/07/28 00:01:50;;;;;;;2.03;1.75;;;19.60;99.90;;;;;;5102842;28;20269;-68
2023/07/28 00:04:20;;;;;;;1.65;1.55;;;19.60;99.90;;;;;;5086730;28;20205;-69
2023/07/28 00:06:48;;;;;;;1.67;1.58;;;19.60;99.90;;;;;;5082034;28;20242;-69
2023/07/28 00:09:17;;;;;;;1.40;1.30;;;19.60;99.90;;;;;;5106282;28;20409;-69
2023/07/28 00:11:45;;;;;;;1.88;1.42;;;19.50;99.90;;;;;;5087836;28;20290;-69
2023/07/28 00:14:12;;;;;;;1.88;1.45;;;19.50;99.90;;;;;;5106001;28;20222;-68
2023/07/28 00:16:39;;;;;;;2.05;1.55;;;19.50;99.90;;;;;;5084124;28;20195;-68
2023/07/28 00:19:07;;;;;;;2.15;1.95;;;19.50;99.90;;;;;;5104572;28;20183;-69
2023/07/28 00:21:34;;;;;;;3.38;2.42;;;19.40;99.90;;;;;;5102214;28;20235;-68
2023/07/28 00:24:01;;;;;;;2.97;2.67;;;19.50;99.90;;;;;;5103743;28;20604;-68
2023/07/28 00:26:28;;;;;;;2.30;2.08;;;19.50;99.90;;;;;;5099553;28;20276;-69
2023/07/28 00:28:57;;;;;;;2.60;2.00;;;19.40;99.90;;;;;;5101575;28;20778;-69
2023/07/28 00:31:28;;;;;;;2.08;1.88;;;19.40;99.90;;;;;;5087958;28;20278;-69
2023/07/28 00:33:55;;;;;;;3.97;2.65;;;19.30;99.90;;;;;;5073309;28;20612;-69
2023/07/28 00:36:22;;;;;;;2.78;2.22;;;19.40;99.90;;;;;;5086537;28;20219;-69
2023/07/28 00:38:49;;;;;;;2.25;2.00;;;19.30;99.90;;;;;;5108356;28;20656;-69
2023/07/28 00:41:17;;;;;;;2.42;1.95;;;19.20;99.90;;;;;;5091706;28;20208;-69
2023/07/28 00:43:44;;;;;;;2.60;2.03;;;19.20;99.90;;;;;;5104758;28;20643;-69
2023/07/28 00:46:13;;;;;;;1.80;1.63;;;19.20;99.90;;;;;;5109634;28;20212;-69
2023/07/28 00:48:41;;;;;;;1.90;1.48;;;19.30;99.90;;;;;;5099615;28;20213;-69
2023/07/28 00:51:09;;;;;;;2.33;1.40;;;19.30;99.90;;;;;;5097500;28;20223;-69
2023/07/28 00:53:36;;;;;;;1.60;1.20;;;19.30;99.90;;;;;;5095497;28;20903;-69
2023/07/28 00:56:04;;;;;;;1.40;1.30;;;19.30;99.90;;;;;;5107445;28;20529;-69
2023/07/28 00:58:31;;;;;;;1.65;1.50;;;19.30;99.90;;;;;;5102639;28;20192;-68
2023/07/28 01:00:58;;;;;;;1.80;1.50;;;19.30;99.90;;;;;;5107017;28;20685;-68
2023/07/28 01:03:27;;;;;;;1.90;1.73;;;19.20;99.90;;;;;;5084873;28;20227;-68
2023/07/28 01:06:02;;;;;;;2.20;2.00;;;19.20;99.90;;;;;;5087036;28;20243;-68
2023/07/28 01:08:38;;;;;;;2.08;1.92;;;19.20;99.90;;;;;;5076637;28;20211;-68
2023/07/28 01:11:05;;;;;;;1.50;1.40;;;19.10;99.90;;;;;;5098883;28;20190;-68
2023/07/28 01:13:32;;;;;;;1.60;1.50;;;19.10;99.90;;;;;;5088058;28;20252;-69
2023/07/28 01:16:00;;;;;;;1.33;1.23;;;19.20;99.90;;;;;;5077761;28;20243;-68
2023/07/28 01:18:29;;;;;;;1.50;1.40;;;19.10;99.90;;;;;;5081687;28;20226;-68
2023/07/28 01:20:59;;;;;;;2.13;1.35;;;19.10;99.90;;;;;;5104900;28;20184;-69
2023/07/28 01:23:38;;;;;;;1.50;1.40;;;19.10;99.90;;;;;;5100762;28;20604;-68
2023/07/28 01:26:09;;;;;;;1.38;1.27;;;19.10;99.90;;;;;;5101405;28;20278;-69
2023/07/28 01:28:39;;;;;;;1.50;1.40;;;19.20;99.90;;;;;;5100221;28;20231;-69
2023/07/28 01:31:08;;;;;;;1.60;1.50;;;19.10;99.90;;;;;;5100005;28;20274;-69
2023/07/28 01:33:35;;;;;;;1.98;1.40;;;19.20;99.90;;;;;;5099948;28;20682;-69
2023/07/28 01:36:02;;;;;;;1.42;1.33;;;19.10;99.90;;;;;;5091949;28;20293;-69
2023/07/28 01:38:29;;;;;;;1.40;1.30;;;19.10;99.90;;;;;;5099640;28;20212;-68
2023/07/28 01:40:56;;;;;;;1.77;1.63;;;19.10;99.90;;;;;;5095862;28;20226;-69
2023/07/28 01:43:24;;;;;;;1.55;1.45;;;19.10;99.90;;;;;;5084826;28;20200;-69
2023/07/28 01:45:52;;;;;;;1.98;1.40;;;19.20;99.90;;;;;;5096627;28;20270;-69
2023/07/28 01:48:19;;;;;;;1.90;1.42;;;19.10;99.90;;;;;;5085049;28;20197;-69
2023/07/28 01:50:46;;;;;;;1.38;1.35;;;19.10;99.90;;;;;;5096603;28;20278;-69
2023/07/28 01:53:13;;;;;;;1.40;1.30;;;19.10;99.90;;;;;;5100018;28;20278;-69
2023/07/28 01:55:40;;;;;;;1.20;1.10;;;19.10;99.90;;;;;;5109223;28;20207;-68
2023/07/28 01:58:07;;;;;;;1.40;1.30;;;19.20;99.90;;;;;;5084808;28;20257;-68
2023/07/28 02:00:34;;;;;;;1.30;1.20;;;19.20;99.90;;;;;;5087041;28;20286;-68
2023/07/28 02:03:03;;;;;;;1.38;1.27;;;19.10;99.90;;;;;;5098882;28;20200;-69
2023/07/28 02:05:31;;;;;;;1.05;1.05;;;19.10;99.90;;;;;;5105776;28;20253;-69
2023/07/28 02:07:58;;;;;;;1.20;1.20;;;19.10;99.90;;;;;;5108515;28;20215;-69
2023/07/28 02:10:28;;;;;;;1.77;1.60;;;19.10;99.90;;;;;;5084194;28;20200;-69
2023/07/28 02:12:55;;;;;;;2.97;1.40;;;19.10;99.90;;;;;;5103001;28;20196;-69
2023/07/28 02:15:22;;;;;;;1.52;1.10;;;19.10;99.90;;;;;;5103697;28;20204;-69
2023/07/28 02:17:49;;;;;;;2.15;1.52;;;19.10;99.90;;;;;;5108476;28;20192;-69
2023/07/28 02:20:18;;;;;;;1.67;1.48;;;19.10;99.90;;;;;;5082446;28;20679;-69
2023/07/28 02:22:45;;;;;;;5.22;1.52;;;19.00;99.90;;;;;;5101180;28;20481;-69
2023/07/28 02:25:12;;;;;;;4.05;1.77;;;19.00;99.90;;;;;;5080810;28;20297;-69
2023/07/28 02:27:39;;;;;;;1.45;1.35;;;19.00;99.90;;;;;;5101523;28;20554;-69
2023/07/28 02:30:07;;;;;;;2.00;1.55;;;19.00;99.90;;;;;;5094456;28;20216;-69
2023/07/28 02:32:34;;;;;;;2.75;1.80;;;19.00;99.90;;;;;;5084210;28;20240;-69
2023/07/28 02:35:02;;;;;;;3.15;1.83;;;18.90;99.90;;;;;;5105372;28;20291;-69
2023/07/28 02:37:30;;;;;;;1.85;1.48;;;19.00;99.90;;;;;;5094231;28;20206;-69
2023/07/28 02:39:57;;;;;;;1.00;1.00;;;18.90;99.90;;;;;;5101534;28;20189;-69
2023/07/28 02:42:25;;;;;;;2.17;1.27;;;19.00;99.90;;;;;;5112913;28;20229;-69
2023/07/28 02:44:52;;;;;;;1.27;1.17;;;18.90;99.90;;;;;;5103921;28;20214;-69
2023/07/28 02:47:19;;;;;;;1.52;1.42;;;19.00;99.90;;;;;;5108094;28;20202;-69
2023/07/28 02:49:46;;;;;;;4.43;1.30;;;19.00;99.90;;;;;;5112616;28;20204;-69
2023/07/28 02:52:13;;;;;;;2.75;1.80;;;19.00;99.90;;;;;;5090715;28;20268;-69
2023/07/28 02:54:42;;;;;;;1.90;1.80;;;18.90;99.90;;;;;;5112551;28;20857;-69
2023/07/28 02:57:09;;;;;;;1.98;1.85;;;18.90;99.90;;;;;;5102319;28;20257;-70
2023/07/28 02:59:42;;;;;;;1.83;1.60;;;18.90;99.90;;;;;;5089522;28;20195;-69
2023/07/28 03:02:09;;;;;;;1.63;1.52;;;18.90;99.90;;;;;;5108054;28;20211;-69
2023/07/28 03:04:36;;;;;;;1.70;1.60;;;18.80;99.90;;;;;;5082793;28;20594;-69
2023/07/28 03:07:06;;;;;;;1.55;1.30;;;18.80;99.90;;;;;;5100321;28;20195;-70
2023/07/28 03:09:34;;;;;;;1.45;1.35;;;18.80;99.90;;;;;;5079939;28;20223;-70
2023/07/28 03:12:05;;;;;;;1.50;1.40;;;18.80;99.90;;;;;;5082918;28;20199;-69
2023/07/28 03:14:33;;;;;;;1.30;1.20;;;18.80;99.90;;;;;;5101244;28;20645;-69
2023/07/28 03:17:00;;;;;;;1.60;1.50;;;18.80;99.90;;;;;;5103473;28;20196;-69
2023/07/28 03:19:27;;;;;;;2.28;1.30;;;18.80;99.90;;;;;;5086716;28;20184;-69
2023/07/28 03:21:54;;;;;;;1.20;1.20;;;18.70;99.90;;;;;;5083426;28;20209;-69
2023/07/28 03:24:21;;;;;;;1.08;1.08;;;18.70;99.90;;;;;;5087161;28;20261;-69
2023/07/28 03:26:48;;;;;;;1.40;1.30;;;18.70;99.90;;;;;;5091999;28;20204;-69
2023/07/28 03:29:18;;;;;;;1.33;1.23;;;18.70;99.90;;;;;;5085555;28;20314;-69
2023/07/28 03:31:45;;;;;;;2.17;1.35;;;18.80;99.90;;;;;;5112456;28;20192;-69
2023/07/28 03:34:12;;;;;;;1.42;1.33;;;18.80;99.90;;;;;;5110773;28;20199;-69
2023/07/28 03:36:40;;;;;;;1.63;1.52;;;18.70;99.90;;;;;;5084836;28;20208;-69
2023/07/28 03:39:07;;;;;;;2.13;1.38;;;18.80;99.90;;;;;;5108876;28;20200;-69
2023/07/28 03:41:35;;;;;;;1.08;1.08;;;18.80;99.90;;;;;;5088772;28;20664;-69
2023/07/28 03:44:02;;;;;;;1.20;1.10;;;18.80;99.90;;;;;;5080635;28;20256;-69
2023/07/28 03:46:30;;;;;;;1.48;1.40;;;18.90;99.90;;;;;;5092488;28;20259;-69
2023/07/28 03:49:00;;;;;;;1.63;1.30;;;18.90;99.90;;;;;;5106924;28;20215;-69
2023/07/28 03:51:27;;;;;;;1.40;1.30;;;18.90;99.90;;;;;;5077718;28;20219;-69
2023/07/28 03:53:54;;;;;;;1.85;1.33;;;18.90;99.90;;;;;;5090813;28;20199;-69
2023/07/28 03:56:21;;;;;;;1.67;1.30;;;18.90;99.90;;;;;;5094190;28;20291;-69
2023/07/28 03:58:48;;;;;;;1.10;1.10;;;18.90;99.90;;;;;;5094326;28;20666;-68
2023/07/28 04:01:15;;;;;;;2.08;1.50;;;18.90;99.90;;;;;;5084956;28;20272;-69
2023/07/28 04:03:44;;;;;;;2.38;1.30;;;18.90;99.90;;;;;;5103742;28;20196;-69
2023/07/28 04:06:12;;;;;;;4.20;1.75;;;18.90;99.90;;;;;;5105847;28;20740;-68
2023/07/28 04:08:39;;;;;;;2.28;1.55;;;18.90;99.90;;;;;;5100685;28;20215;-69
2023/07/28 04:11:06;;;;;;;1.75;1.60;;;19.00;99.90;;;;;;5107875;28;20196;-68
2023/07/28 04:13:34;;;;;;;1.50;1.30;;;18.90;99.90;;;;;;5083862;28;20204;-69
2023/07/28 04:16:02;;;;;;;2.42;1.33;;;18.90;99.90;;;;;;5083545;28;20579;-68
2023/07/28 04:18:30;;;;;;;2.45;1.85;;;18.90;99.90;;;;;;5105138;28;20192;-69
2023/07/28 04:20:58;;;;;;;1.90;1.80;;;18.90;99.90;;;;;;5090150;28;20250;-69
2023/07/28 04:23:25;;;;;;;2.55;1.80;;;18.90;99.90;;;;;;5092069;28;20253;-69
2023/07/28 04:25:52;;;;;;;2.63;1.40;;;18.90;99.90;;;;;;5078926;28;20212;-69
2023/07/28 04:28:24;;;;;;;1.75;1.65;;;18.90;99.90;;;;;;5090281;28;20281;-69
2023/07/28 04:30:51;;;;;;;2.17;1.95;;;18.90;99.90;;;;;;5095434;28;20238;-69
2023/07/28 04:33:42;;;;;;;2.75;1.70;;;18.90;99.90;;;;;;5094137;28;20200;-69
2023/07/28 04:36:11;;;;;;;3.58;1.88;;;18.90;99.90;;;;;;5092477;28;20657;-69
2023/07/28 04:38:38;;;;;;;1.52;1.42;;;18.80;99.90;;;;;;5092528;28;20227;-69
2023/07/28 04:41:06;;;;;;;1.63;1.30;;;18.90;99.90;;;;;;5088760;28;20196;-69
2023/07/28 04:43:48;;;;;;;1.00;1.00;;;18.90;99.90;;;;;;5086249;28;20204;-69
2023/07/28 04:46:15;;;;;;;1.30;1.20;;;18.90;99.90;;;;;;5120137;27;20226;-68
2023/07/28 04:48:45;;;;;;;2.22;1.27;;;19.00;99.90;;;;;;5087966;28;20235;-69
2023/07/28 04:51:33;;;;;;;1.50;1.40;;;18.90;99.90;;;;;;5098551;28;20196;-69
2023/07/28 04:54:19;;;;;;;1.63;1.42;;;19.00;99.90;;;;;;5106183;28;20218;-69
2023/07/28 04:56:47;;;;;;;1.25;1.20;;;19.00;99.90;;;;;;5103619;28;20271;-69
2023/07/28 04:59:14;;;;;;;1.17;1.17;;;19.00;99.90;;;;;;5088421;28;20199;-69
2023/07/28 05:01:41;;;;;;;1.10;1.10;;;19.00;99.90;;;;;;5086712;28;20307;-69
2023/07/28 05:04:09;;;;;;;1.17;1.15;;;19.00;99.90;;;;;;5083310;28;20196;-69
2023/07/28 05:06:37;;;;;;;1.13;0.98;;;19.00;99.90;;;;;;5086544;28;20224;-69
2023/07/28 05:09:04;;;;;;;3.22;1.35;;;19.00;99.90;;;;;;5077723;28;20219;-69
2023/07/28 05:11:36;;;;;;;1.52;1.42;;;19.00;99.90;;;;;;5084235;28;20188;-69
2023/07/28 05:14:05;;;;;;;1.65;1.25;;;19.00;99.90;;;;;;5087119;28;20188;-68
2023/07/28 05:16:33;;;;;;;1.50;1.40;;;19.00;99.90;;;;;;5092284;28;20321;-68
2023/07/28 05:19:13;;;;;;;1.27;1.17;;;19.10;99.90;;;;;;5104963;28;20194;-68
2023/07/28 05:22:00;;;;;;;1.75;1.33;;;19.10;99.90;;;;;;5103009;28;20195;-69
2023/07/28 05:24:44;;;;;;;2.42;1.05;;;19.10;99.90;;;;;;5084889;28;20196;-68
2023/07/28 05:27:12;;;;;;;1.13;1.10;;;19.10;99.90;;;;;;5101392;28;20196;-69
2023/07/28 05:29:40;;;;;;;1.23;1.10;;;19.10;99.90;;;;;;5088456;28;20228;-68
2023/07/28 05:32:08;;;;;;;1.00;1.00;;;19.20;99.90;;;;;;5083189;28;20608;-68
2023/07/28 05:34:44;;;;;;;1.50;1.00;;;19.20;99.90;;;;;;5092241;28;20203;-68
2023/07/28 05:37:13;;;;;;;1.67;1.30;;;19.20;99.90;;;;;;5105206;28;20265;-68
2023/07/28 05:39:40;;;;;;;2.92;1.70;;;19.20;99.90;;;;;;5102687;28;20192;-67
2023/07/28 05:42:08;;;;;;;6.43;1.83;;;19.30;99.90;;;;;;5082230;28;20285;-68
2023/07/28 05:44:35;;;;;;;6.07;2.08;;;19.20;99.90;;;;;;5084115;28;20212;-68
2023/07/28 05:47:03;;;;;;;1.95;1.75;;;19.20;99.90;;;;;;5084427;28;20671;-68
2023/07/28 05:49:31;;;;;;;1.92;1.70;;;19.20;99.90;;;;;;5075284;28;20215;-68
2023/07/28 05:51:59;;;;;;;2.85;1.80;;;19.20;99.90;;;;;;5078091;28;20260;-68
2023/07/28 05:54:27;;;;;;;1.67;1.58;;;19.20;99.90;;;;;;5083927;28;20292;-68
2023/07/28 05:56:54;;;;;;;3.78;1.95;;;19.20;99.90;;;;;;5073873;28;20261;-68
2023/07/28 05:59:22;;;;;;;1.40;1.30;;;19.20;99.90;;;;;;5089511;28;20299;-68
2023/07/28 06:01:49;;;;;;;1.70;1.60;;;19.20;99.90;;;;;;5104310;28;20260;-68
2023/07/28 06:04:42;;;;;;;1.77;1.52;;;19.20;99.90;;;;;;5074532;28;20199;-68
2023/07/28 06:07:11;;;;;;;1.63;1.50;;;19.20;99.90;;;;;;5104766;28;20255;-68
2023/07/28 06:09:40;;;;;;;3.58;1.90;;;19.20;99.90;;;;;;5081234;28;20218;-67
2023/07/28 06:12:08;;;;;;;2.03;1.85;;;19.30;99.90;;;;;;5078399;28;20192;-68
2023/07/28 06:14:35;;;;;;;3.40;2.03;;;19.20;99.90;;;;;;5102615;28;20194;-67
2023/07/28 06:17:04;;;;;;;2.13;1.90;;;19.30;99.90;;;;;;5089165;28;20203;-68
2023/07/28 06:19:34;;;;;;;2.00;1.80;;;19.20;99.90;;;;;;5081317;28;20837;-67
2023/07/28 06:22:01;;;;;;;2.40;2.00;;;19.20;99.90;;;;;;5085932;28;20195;-68
2023/07/28 06:24:31;;;;;;;2.22;2.00;;;19.30;99.90;;;;;;5081772;28;20207;-68
2023/07/28 06:27:06;;;;;;;2.42;1.77;;;19.20;99.90;;;;;;5088766;28;20222;-65
2023/07/28 06:29:34;;;;;;;1.42;1.33;;;19.30;99.90;;;;;;5092586;27;20234;-65
2023/07/28 06:32:02;;;;;;;3.78;2.13;;;19.30;99.90;;;;;;5104495;27;20200;-66
2023/07/28 06:34:29;;;;;;;3.28;2.20;;;19.40;99.90;;;;;;5094142;28;20563;-66
2023/07/28 06:36:56;;;;;;;5.50;2.28;;;19.40;99.90;;;;;;5104165;28;20601;-65
2023/07/28 06:39:24;;;;;;;3.38;2.20;;;19.40;99.90;;;;;;5086669;28;20193;-66
2023/07/28 06:41:51;;;;;;;3.30;2.15;;;19.40;99.90;;;;;;5098805;28;20631;-66
2023/07/28 06:44:20;;;;;;;2.55;1.63;;;19.40;99.90;;;;;;5087547;28;20208;-65
2023/07/28 06:46:48;;;;;;;2.20;2.00;;;19.40;99.90;;;;;;5096265;28;20197;-66
2023/07/28 06:49:16;;;;;;;1.40;1.40;;;19.40;99.90;;;;;;5079604;28;22283;-65
2023/07/28 06:51:42;;;;;;;1.40;1.30;;;19.40;99.90;;;;;;5086032;28;20233;-66
2023/07/28 06:54:12;;;;;;;1.30;1.23;;;19.40;99.90;;;;;;5084647;28;20200;-66
2023/07/28 06:56:40;;;;;;;2.17;1.60;;;19.40;99.90;;;;;;5077499;28;20687;-66
2023/07/28 06:59:08;;;;;;;1.52;1.42;;;19.50;99.90;;;;;;5079700;28;20754;-66
2023/07/28 07:01:36;;;;;;;1.45;1.35;;;19.50;99.90;;;;;;5082633;28;20195;-67
2023/07/28 07:04:04;;;;;;;1.33;1.10;;;19.50;99.90;;;;;;5090638;28;21007;-67
2023/07/28 07:06:32;;;;;;;1.40;1.30;;;19.50;99.90;;;;;;5081460;28;20255;-67
2023/07/28 07:08:59;;;;;;;2.47;2.25;;;19.50;99.90;;;;;;5080136;28;20204;-67
2023/07/28 07:11:26;;;;;;;10.13;2.60;;;19.60;99.90;;;;;;5097189;28;20594;-67
2023/07/28 07:13:53;;;;;;;2.88;2.40;;;19.60;99.90;;;;;;5076853;28;20287;-66
2023/07/28 07:16:20;;;;;;;3.28;2.63;;;19.60;99.90;;;;;;5084790;28;20191;-67
2023/07/28 07:18:48;;;;;;;3.53;2.60;;;19.60;99.90;;;;;;5101578;28;20960;-67
2023/07/28 07:21:15;;;;;;;5.65;2.42;;;19.60;99.90;;;;;;5103351;28;20700;-67
2023/07/28 07:23:42;;;;;;;2.42;2.00;;;19.60;99.90;;;;;;5092797;28;20197;-67
2023/07/28 07:26:25;;;;;;;4.82;2.40;;;19.50;99.90;;;;;;5098097;28;20647;-67
2023/07/28 07:28:53;;;;;;;2.03;1.92;;;19.50;99.90;;;;;;5100439;28;20654;-67
2023/07/28 07:31:20;;;;;;;3.90;2.20;;;19.50;99.90;;;;;;5100107;28;20208;-67
2023/07/28 07:33:49;;;;;;;2.92;2.63;;;19.60;99.90;;;;;;5100349;28;20204;-67
2023/07/28 07:36:17;;;;;;;2.60;2.40;;;19.60;99.90;;;;;;5109752;28;20263;-67
2023/07/28 07:38:45;;;;;;;3.38;2.00;;;19.70;99.90;;;;;;5088336;28;20208;-67
2023/07/28 07:41:15;;;;;;;2.78;2.47;;;19.80;99.90;;;;;;5109471;28;20187;-67
2023/07/28 07:43:42;;;;;;;3.03;2.70;;;19.80;99.90;;;;;;5084314;28;20210;-67
2023/07/28 07:46:09;;;;;;;6.15;2.40;;;19.90;99.90;;;;;;5110272;27;20204;-67
2023/07/28 07:48:36;;;;;;;2.17;2.08;;;19.90;99.90;;;;;;5106665;28;20265;-67
2023/07/28 07:51:05;;;;;;;3.35;2.47;;;19.90;99.90;;;;;;5109354;28;20222;-67
2023/07/28 07:53:32;;;;;;;3.88;2.72;;;20.00;99.90;;;;;;5108283;28;20201;-67
2023/07/28 07:55:59;;;;;;;3.30;1.90;;;20.00;99.90;;;;;;5082795;28;20200;-67
2023/07/28 07:58:26;;;;;;;2.35;2.00;;;20.10;99.90;;;;;;5105435;28;20203;-67
2023/07/28 08:00:53;;;;;;;4.57;2.58;;;20.10;99.90;;;;;;5082029;28;20188;-67
2023/07/28 08:03:20;;;;;;;3.35;2.25;;;20.20;99.90;;;;;;5099349;28;20600;-67
2023/07/28 08:05:47;;;;;;;3.13;2.45;;;20.20;99.90;;;;;;5097412;28;20281;-67
2023/07/28 08:08:17;;;;;;;2.30;2.10;;;20.20;99.90;;;;;;5097505;28;20228;-67
2023/07/28 08:10:44;;;;;;;3.35;2.88;;;20.20;99.90;;;;;;5100227;28;20207;-67
2023/07/28 08:13:11;;;;;;;4.85;2.35;;;20.30;99.90;;;;;;5097572;28;20201;-68
2023/07/28 08:15:38;;;;;;;2.38;2.17;;;20.30;99.90;;;;;;5104837;28;20227;-68
2023/07/28 08:18:05;;;;;;;3.53;2.53;;;20.30;99.90;;;;;;5079193;28;20686;-68
2023/07/28 08:20:32;;;;;;;5.47;2.72;;;20.40;99.90;;;;;;5088763;28;20290;-68
2023/07/28 08:22:59;;;;;;;4.57;2.90;;;20.40;99.90;;;;;;5096267;28;20196;-68
2023/07/28 08:25:27;;;;;;;3.00;2.60;;;20.40;99.90;;;;;;5097790;28;20203;-68
2023/07/28 08:27:54;;;;;;;3.10;2.80;;;20.40;99.90;;;;;;5095603;28;20277;-68
2023/07/28 08:30:21;;;;;;;3.50;2.75;;;20.40;99.90;;;;;;5103808;28;20219;-68
2023/07/28 08:32:49;;;;;;;4.40;2.90;;;20.50;99.90;;;;;;5092221;28;20201;-68
2023/07/28 08:35:16;;;;;;;3.22;2.70;;;20.40;99.90;;;;;;5100069;28;20667;-68
2023/07/28 08:37:44;;;;;;;2.70;2.50;;;20.40;99.90;;;;;;5088513;28;20199;-68
2023/07/28 08:40:12;;;;;;;3.80;2.75;;;20.40;99.90;;;;;;5097287;28;20198;-68
2023/07/28 08:42:42;;;;;;;3.88;3.33;;;20.30;99.90;;;;;;5100983;28;20288;-68
2023/07/28 08:45:10;;;;;;;4.30;3.35;;;20.30;99.90;;;;;;5106492;28;20249;-68
2023/07/28 08:47:37;;;;;;;3.80;3.20;;;20.20;99.90;;;;;;5107007;28;20200;-68
2023/07/28 08:50:06;;;;;;;3.10;2.72;;;20.20;99.90;;;;;;5109633;28;20272;-69
2023/07/28 08:52:33;;;;;;;3.20;2.67;;;20.20;99.90;;;;;;5096159;28;20283;-68
2023/07/28 08:55:00;;;;;;;5.60;2.70;;;20.10;99.90;;;;;;5107389;28;20190;-68
2023/07/28 08:57:28;;;;;;;4.32;2.63;;;20.10;99.90;;;;;;5103230;28;20796;-68
2023/07/28 08:59:57;;;;;;;4.65;2.88;;;20.10;99.90;;;;;;5102053;28;20192;-68
2023/07/28 09:02:24;;;;;;;3.42;2.60;;;20.00;99.90;;;;;;5100337;28;20197;-68
2023/07/28 09:04:51;;;;;;;4.05;2.80;;;20.00;99.90;;;;;;5086381;28;20220;-68
2023/07/28 09:07:18;;;;;;;7.38;2.60;;;20.00;99.90;;;;;;5097460;28;20262;-68
2023/07/28 09:09:46;;;;;;;4.10;2.53;;;20.10;99.90;;;;;;5104698;28;20291;-65
2023/07/28 09:12:13;;;;;;;3.08;2.78;;;20.00;99.90;;;;;;5096379;28;20239;-68
2023/07/28 09:14:40;;;;;;;3.00;2.67;;;20.00;99.90;;;;;;5107376;28;20597;-68
2023/07/28 09:17:10;;;;;;;5.60;3.00;;;20.10;99.90;;;;;;5082500;28;20199;-68
2023/07/28 09:19:51;;;;;;;3.25;2.55;;;20.00;99.90;;;;;;5102831;28;20193;-69
2023/07/28 09:22:19;;;;;;;3.75;2.90;;;20.00;99.90;;;;;;5105300;28;20265;-69
2023/07/28 09:24:46;;;;;;;2.60;2.40;;;20.10;99.90;;;;;;5101557;28;20560;-68
2023/07/28 09:27:22;;;;;;;4.53;2.70;;;20.10;99.90;;;;;;5102512;28;20192;-69
2023/07/28 09:29:50;;;;;;;3.47;2.65;;;20.10;99.90;;;;;;5099757;28;20194;-68
2023/07/28 09:32:30;;;;;;;3.50;3.20;;;20.20;99.90;;;;;;5100072;28;20678;-68
2023/07/28 09:35:09;;;;;;;3.95;2.95;;;20.20;99.90;;;;;;5104844;28;20204;-68
2023/07/28 09:37:39;;;;;;;3.50;3.20;;;20.20;99.90;;;;;;5090280;28;20192;-69
2023/07/28 09:40:11;;;;;;;5.13;3.03;;;20.20;99.90;;;;;;5085230;28;20292;-69
2023/07/28 09:42:38;;;;;;;5.85;2.80;;;20.30;99.90;;;;;;5100257;28;20191;-69
2023/07/28 09:45:06;;;;;;;3.80;3.38;;;20.30;99.90;;;;;;5086627;28;20211;-69
2023/07/28 09:47:36;;;;;;;5.15;3.42;;;20.30;99.90;;;;;;5105265;28;20219;-68
2023/07/28 09:50:04;;;;;;;4.15;2.85;;;20.30;99.90;;;;;;5102320;28;20493;-68
2023/07/28 09:52:35;;;;;;;4.88;3.42;;;20.30;99.90;;;;;;5101287;28;20191;-68
2023/07/28 09:55:08;;;;;;;4.13;3.13;;;20.30;99.90;;;;;;5106365;28;20192;-68
2023/07/28 09:57:40;;;;;;;6.10;3.60;;;20.30;99.90;;;;;;5091861;28;20215;-68
2023/07/28 10:00:11;;;;;;;4.18;3.17;;;20.30;99.90;;;;;;5099278;28;20512;-68
2023/07/28 10:02:43;;;;;;;3.42;3.03;;;20.30;99.90;;;;;;5097190;28;20188;-68
2023/07/28 10:05:11;;;;;;;5.35;3.63;;;20.30;99.90;;;;;;5099227;28;20702;-69
2023/07/28 10:07:42;;;;;;;9.18;3.78;;;20.40;99.90;;;;;;5107701;28;20247;-68
2023/07/28 10:10:13;;;;;;;6.70;3.58;;;20.30;99.90;;;;;;5099973;28;20241;-68
2023/07/28 10:12:43;;;;;;;4.65;3.00;;;20.30;99.90;;;;;;5088699;28;20812;-68
2023/07/28 10:15:16;;;;;;;4.40;3.33;;;20.30;99.90;;;;;;5108394;28;20220;-68
2023/07/28 10:17:49;;;;;;;4.35;3.20;;;20.30;99.90;;;;;;5103252;28;20283;-69
2023/07/28 10:20:34;;;;;;;3.20;2.90;;;20.40;99.90;;;;;;5107827;28;20219;-68
2023/07/28 10:23:08;;;;;;;4.18;3.17;;;20.30;99.90;;;;;;5102689;28;20641;-68
2023/07/28 10:25:37;;;;;;;9.30;3.67;;;20.40;99.90;;;;;;5100667;28;20202;-68
2023/07/28 10:28:05;;;;;;;4.00;3.17;;;20.40;99.90;;;;;;5079571;28;20203;-68
2023/07/28 10:30:37;;;;;;;6.97;2.10;;;20.40;99.90;;;;;;5099712;28;20659;-68
2023/07/28 10:33:06;;;;;;;2.40;2.20;;;20.40;99.90;;;;;;5096688;28;20236;-69
2023/07/28 10:35:34;;;;;;;5.18;3.10;;;20.40;99.90;;;;;;5102311;28;20192;-68
2023/07/28 10:38:30;;;;;;;5.50;3.45;;;20.40;99.90;;;;;;5108121;28;20188;-68
2023/07/28 10:41:13;;;;;;;4.90;3.42;;;20.40;99.90;;;;;;5096719;28;20264;-68
2023/07/28 10:43:40;;;;;;;3.75;3.13;;;20.40;99.90;;;;;;5106448;28;20207;-68
2023/07/28 10:46:09;;;;;;;5.22;3.53;;;20.50;99.90;;;;;;5091984;28;20216;-68
2023/07/28 10:56:09;;;;;;;3.20;2.88;;;20.50;99.90;;;;;;5101303;28;20179;-69
2023/07/28 10:58:36;;;;;;;2.00;1.90;;;20.50;99.90;;;;;;5089770;28;20220;-69
2023/07/28 11:01:04;;;;;;;4.35;3.10;;;20.60;99.90;;;;;;5095016;28;20284;-68
2023/07/28 11:03:31;;;;;;;3.67;3.08;;;20.70;99.90;;;;;;5083380;28;20246;-68
2023/07/28 11:05:58;;;;;;;2.85;2.63;;;20.80;99.90;;;;;;5108514;28;20223;-68
2023/07/28 11:08:25;;;;;;;6.72;3.35;;;20.80;99.90;;;;;;5079072;28;20203;-68
2023/07/28 11:10:52;;;;;;;5.28;3.72;;;20.90;99.90;;;;;;5107170;28;20684;-68
2023/07/28 11:13:24;;;;;;;8.73;3.10;;;20.90;99.90;;;;;;5099617;28;20192;-68
2023/07/28 11:15:51;;;;;;;2.80;2.35;;;20.90;99.90;;;;;;5106299;28;20194;-69
2023/07/28 11:18:18;;;;;;;2.90;2.00;;;21.00;99.90;;;;;;5103697;28;20585;-69
2023/07/28 11:20:45;;;;;;;2.10;2.00;;;21.00;99.90;;;;;;5105359;28;20199;-68
2023/07/28 11:23:15;;;;;;;2.70;2.40;;;21.00;99.90;;;;;;5102222;28;20200;-69
2023/07/28 11:25:44;;;;;;;3.58;1.95;;;21.10;99.90;;;;;;5100203;28;20197;-68
2023/07/28 11:28:11;;;;;;;1.75;1.65;;;21.10;99.90;;;;;;5104658;28;20317;-69
2023/07/28 11:30:42;;;;;;;2.80;2.60;;;21.10;99.90;;;;;;5105587;28;20207;-69
2023/07/28 11:33:11;;;;;;;2.50;2.30;;;21.20;99.90;;;;;;5107953;28;20188;-69
2023/07/28 11:35:40;;;;;;;1.95;1.70;;;21.10;99.90;;;;;;5102611;28;20302;-68
2023/07/28 11:38:08;;;;;;;4.55;2.13;;;21.10;99.90;;;;;;5115592;27;20188;-68
2023/07/28 11:40:36;;;;;;;2.20;2.00;;;21.10;99.90;;;;;;5104015;28;20192;-69
2023/07/28 11:43:03;;;;;;;3.42;2.00;;;21.10;99.90;;;;;;5104359;28;20199;-69
2023/07/28 11:45:30;;;;;;;5.72;2.45;;;21.10;99.90;;;;;;5090731;28;20196;-68
2023/07/28 11:48:00;;;;;;;2.40;2.20;;;21.10;99.90;;;;;;5107418;28;20253;-68
2023/07/28 11:50:29;;;;;;;2.10;1.90;;;21.10;99.90;;;;;;5097914;28;20275;-69
2023/07/28 11:52:58;;;;;;;3.03;2.60;;;21.10;99.90;;;;;;5086370;28;20251;-68
2023/07/28 11:55:25;;;;;;;3.40;2.83;;;21.10;99.90;;;;;;5103787;28;20244;-68
2023/07/28 11:57:53;;;;;;;4.00;2.97;;;21.20;99.90;;;;;;5109013;28;20202;-69
2023/07/28 12:00:27;;;;;;;2.50;2.30;;;21.20;99.90;;;;;;5105557;28;20680;-70
2023/07/28 12:03:04;;;;;;;2.40;2.20;;;21.20;99.90;;;;;;5094151;28;20196;-69
2023/07/28 12:05:32;;;;;;;2.15;2.03;;;21.20;99.90;;;;;;5098485;28;20200;-68
2023/07/28 12:08:00;;;;;;;2.33;2.00;;;21.20;99.90;;;;;;5109406;28;20196;-68
2023/07/28 12:10:27;;;;;;;2.40;2.20;;;21.20;99.90;;;;;;5105812;28;20826;-68
2023/07/28 12:12:54;;;;;;;1.58;1.50;;;21.30;99.90;;;;;;5100539;28;20240;-69
2023/07/28 12:15:24;;;;;;;1.70;1.60;;;21.30;99.90;;;;;;5103806;28;20200;-68
2023/07/28 12:18:08;;;;;;;1.65;1.55;;;21.30;99.90;;;;;;5104405;28;20239;-69
2023/07/28 12:20:36;;;;;;;2.15;1.60;;;21.30;99.90;;;;;;5102436;28;20195;-69
2023/07/28 12:23:04;;;;;;;2.00;1.90;;;21.30;99.90;;;;;;5084752;28;20655;-69
2023/07/28 12:25:31;;;;;;;1.88;1.77;;;21.30;99.90;;;;;;5084419;28;20303;-68
2023/07/28 12:27:58;;;;;;;2.25;2.05;;;21.40;99.90;;;;;;5108361;28;20211;-69
2023/07/28 12:30:25;;;;;;;3.05;1.92;;;21.40;99.90;;;;;;5102311;28;20195;-68
2023/07/28 12:32:52;;;;;;;2.25;1.90;;;21.40;99.90;;;;;;5083005;28;20212;-68
2023/07/28 12:35:23;;;;;;;1.65;1.55;;;21.40;99.90;;;;;;5097795;28;20204;-68
2023/07/28 12:37:51;;;;;;;1.60;1.50;;;21.40;99.90;;;;;;5105524;27;20201;-69
2023/07/28 12:40:20;;;;;;;1.40;1.40;;;21.40;99.90;;;;;;5080539;28;20296;-68
2023/07/28 12:42:47;;;;;;;1.98;1.77;;;21.50;99.90;;;;;;5097803;27;20196;-68
2023/07/28 12:45:25;;;;;;;1.23;1.23;;;21.50;99.90;;;;;;5100682;27;20279;-69
2023/07/28 12:47:53;;;;;;;1.83;1.73;;;21.50;99.90;;;;;;5103562;28;20204;-69
2023/07/28 12:50:22;;;;;;;1.52;1.48;;;21.50;99.90;;;;;;5103302;28;20623;-68
2023/07/28 12:52:50;;;;;;;1.95;1.85;;;21.60;99.90;;;;;;5104456;28;20204;-69
2023/07/28 12:55:18;;;;;;;2.80;2.15;;;21.60;99.90;;;;;;5095886;28;20678;-69
2023/07/28 12:57:48;;;;;;;1.95;1.85;;;21.70;99.90;;;;;;5101846;28;20202;-68
2023/07/28 13:00:16;;;;;;;1.85;1.70;;;21.80;99.90;;;;;;5080285;28;20232;-68
2023/07/28 13:02:44;;;;;;;3.55;1.80;;;22.00;99.90;;;;;;5108187;28;20234;-68
2023/07/28 13:05:12;;;;;;;2.00;1.90;;;22.20;99.90;;;;;;5107210;28;20253;-68